I Watch It For The Plot // 10.1 TiB free of 113 TiB

c File Name Size Date
parent folder--
DIR89191_The Cookie Invasion/2983826432026-03-28 07:24:27
DIR90933_Rosewood Family/2800136862026-03-28 12:23:57
DIR90934_Defission Family/2200567542026-03-28 07:24:27
DIR91293_Amy Thistle/2020359722026-03-28 07:24:27
DIR91379_Damien Nightingale/41501022026-03-28 07:24:27
DIR91380_Eqstine Family/38705592026-03-28 07:24:27
DIR92087_Lotti Little/247862662026-03-28 07:24:27
-3090271.json94142025-07-03 13:53:42
-3090271_4629092_StableDefission_00040-4260668949-425fc227462a44c4bb9aa568b6a7b3fc.png11096872025-07-03 13:53:42
-3091548.json64632025-07-03 13:30:30
-3091548_4630943_StableDefission_sample.jpg3257862025-07-03 13:30:30
-3091901.json220362025-07-03 13:23:51
-3091901_4631715_StableDefission_axolotl_01.png9850322025-07-03 13:23:50
-3091901_4631718_StableDefission_axolotl_03.png9400012025-07-03 13:23:51
-3091901_4631723_StableDefission_axolotl_05.png9568992025-07-03 13:23:51
-3091901_4631724_StableDefission_axolotl_06.png9488882025-07-03 13:23:51
-3091901_4631736_StableDefission_axolotl_15.png9306002025-07-03 13:23:51
-3091901_4631742_StableDefission_axolotl_18.png8221872025-07-03 13:23:51
-3091901_4631930_StableDefission_axolotl_set_1_prompts.txt65962025-07-03 13:23:51
-3091942.json223072025-07-03 13:23:00
-3091942_4631798_StableDefission_beecest_01.png11096872023-08-13 11:10:08
-3091942_4631799_StableDefission_beecest_02.png11739962025-07-03 13:23:00
-3091942_4631800_StableDefission_beecest_03.png11189942025-07-03 13:23:00
-3091942_4631809_StableDefission_beecest_08.png11952712025-07-03 13:23:00
-3091942_4631813_StableDefission_beecest_10.png10612662025-07-03 13:23:00
-3091942_4631819_StableDefission_beecest_14.png9987022025-07-03 13:23:00
-3091942_4631825_StableDefission_extracted_prompts.txt177352025-07-03 13:23:00
-3092383.json211732025-07-03 13:15:34
-3092383_4632554_StableDefission_turtle_1.png10322042025-07-03 13:15:34
-3092383_4632555_StableDefission_turtle_2.png9534672025-07-03 13:15:34
-3092383_4632556_StableDefission_turtle_3.png9253252025-07-03 13:15:34
-3092383_4632559_StableDefission_turtle_4.png10364092025-07-03 13:15:34
-3092383_4632560_StableDefission_turtle_5.png10059192025-07-03 13:15:35
-3092383_4632561_StableDefission_turtle_6.png10676592025-07-03 13:15:35
-3092383_4632563_StableDefission_extracted_prompts.txt61822025-07-03 13:15:35
-3093345.json225152025-07-03 12:57:52
-3093345_4634385_StableDefission_ant_and_bee_wedding_1.png26690482025-07-03 12:57:51
-3093345_4634387_StableDefission_ant_and_bee_wedding_2.png26147492025-07-03 12:57:52
-3093345_4634389_StableDefission_ant_and_bee_wedding_3.png24834072025-07-03 12:57:52
-3093345_4634392_StableDefission_ant_and_bee_wedding_4.png25452732025-07-03 12:57:52
-3093345_4634394_StableDefission_ant_and_bee_wedding_5.png25214972025-07-03 12:57:53
-3093345_4634397_StableDefission_ant_and_bee_wedding_6.png22157532025-07-03 12:57:53
-3093345_4634450_StableDefission_extracted_prompts.txt85622025-07-03 12:57:53
-3093378.json215592025-07-03 12:57:25
-3093378_4634438_StableDefission_gay_squirtles_1_up.png22865942025-07-03 12:57:24
-3093378_4634440_StableDefission_gay_squirtles_2_up.png22486462025-07-03 12:57:24
-3093378_4634441_StableDefission_gay_squirtles_3_up.png24180852025-07-03 12:57:24
-3093378_4634443_StableDefission_gay_squirtles_4_up.png25075472025-07-03 12:57:24
-3093378_4634445_StableDefission_gay_squirtles_5_up.png23307052025-07-03 12:57:25
-3093378_4634447_StableDefission_gay_squirtles_6_up.png24133412025-07-03 12:57:25
-3093378_4634452_StableDefission_extracted_prompts.txt64842025-07-03 12:57:25
-3093538.json212622025-07-03 12:54:49
-3093538_4634705_StableDefission_wartortle_boy_1_up.png17542972025-07-03 12:54:48
-3093538_4634706_StableDefission_wartortle_boy_2_up.png19654632025-07-03 12:54:48
-3093538_4634707_StableDefission_wartortle_boy_3_up.png18264512025-07-03 12:54:48
-3093538_4634708_StableDefission_wartortle_boy_4_up.png21757122025-07-03 12:54:49
-3093538_4634709_StableDefission_wartortle_girl_1_up.png19497812025-07-03 12:54:49
-3093538_4634710_StableDefission_wartortle_girl_2_up.png23081162025-07-03 12:54:49
-3093538_4634711_StableDefission_extracted_prompts.txt64522025-07-03 12:54:49
-3094589.json176772025-07-03 12:35:02
-3094589_4636372_StableDefission_wartortle_pairs_1_up.png24643872025-07-03 12:35:00
-3094589_4636375_StableDefission_wartortle_pairs_2_up.png23599712025-07-03 12:35:01
-3094589_4636379_StableDefission_wartortle_pairs_3_up.png23479732025-07-03 12:35:01
-3094589_4636381_StableDefission_wartortle_pairs_4_up.png22744382025-07-03 12:35:02
-3094589_4636383_StableDefission_extracted_prompts.txt48102025-07-03 12:35:02
-3100007.json188742025-07-03 10:39:34
-3100007_4645300_StableDefission_colt_exposure_1_up.png17098542025-07-03 10:39:28
-3100007_4645301_StableDefission_colt_exposure_2_up.png16991612025-07-03 10:39:30
-3100007_4645303_StableDefission_colt_exposure_3_up.png16195802025-07-03 10:39:32
-3100007_4645304_StableDefission_colt_exposure_4_up.png16850522025-07-03 10:39:34
-3100007_4645305_StableDefission_extracted_prompts.txt53412025-07-03 10:39:34
-3100373.json224962025-07-03 10:32:25
-3100373_4645792_StableDefission_horsey_pool_fun_1_up.png18015852025-07-03 10:32:24
-3100373_4645794_StableDefission_horsey_pool_fun_2_up.png17216262025-07-03 10:32:24
-3100373_4645798_StableDefission_horsey_pool_fun_3_up.png16717492025-07-03 10:32:24
-3100373_4645803_StableDefission_horsey_pool_fun_4_up.png17681722025-07-03 10:32:25
-3100373_4645806_StableDefission_horsey_pool_fun_5_up.png16896862025-07-03 10:32:25
-3100373_4645808_StableDefission_horsey_pool_fun_6_up.png17228802025-07-03 10:32:25
-3100608.json52362025-07-03 10:28:32
-3100608_4646166_StableDefission_screen.png1562882025-07-03 10:28:32
-3101056.json183622025-07-03 10:21:17
-3101056_4646927_StableDefission_leaky_braixen_1_up.png19511272025-07-03 10:21:17
-3101056_4646929_StableDefission_leaky_braixen_2_up.png18381132025-07-03 10:21:17
-3101056_4646930_StableDefission_leaky_braixen_3_up.png18284092025-07-03 10:21:17
-3101056_4646932_StableDefission_leaky_braixen_4_up.png16646632025-07-03 10:21:17
-3101056_4646933_StableDefission_extracted_prompts.txt44252025-07-03 10:21:17
-3101860.json204082025-07-03 10:07:35
-3101860_4648148_StableDefission_leaky_absol_1_up.png18294682025-07-03 10:07:32
-3101860_4648149_StableDefission_leaky_absol_2_up.png18937942025-07-03 10:07:32
-3101860_4648150_StableDefission_leaky_absol_3_up.png19960852025-07-03 10:07:33
-3101860_4648151_StableDefission_leaky_absol_4_up.png17486972025-07-03 10:07:34
-3101860_4648152_StableDefission_leaky_absol_5_up.png17886692025-07-03 10:07:35
-3101860_4648155_StableDefission_extracted_prompts.txt61042025-07-03 10:07:35
-3102646.json137852025-07-03 09:50:31
-3102646_4650063_StableDefission_leaky_lugia_1_up.png17741512025-07-03 09:50:31
-3102646_4650066_StableDefission_leaky_lugia_2_up.png15355652025-07-03 09:50:31
-3102646_4650072_StableDefission_extracted_prompts.txt22782025-07-03 09:50:31
-3103375.json182122025-07-03 09:38:32
-3103375_4651180_StableDefission_leaky_meowscarada_1_up.png20602452025-07-03 09:38:31
-3103375_4651181_StableDefission_leaky_meowscarada_2_up.png20969942025-07-03 09:38:31
-3103375_4651183_StableDefission_leaky_meowscarada_3_up.png18078142025-07-03 09:38:32
-3103375_4651185_StableDefission_leaky_meowscarada_4_up.png18413962025-07-03 09:38:32
-3103375_4651186_StableDefission_extracted_prompts.txt47252025-07-03 09:38:32
-3104276.json218662025-07-03 09:22:50
-3104276_4652644_StableDefission_leaky_inteleon_1_up.png20666642025-07-03 09:22:50
-3104276_4652645_StableDefission_leaky_inteleon_2_up.png21019832025-07-03 09:22:50
-3104276_4652646_StableDefission_leaky_inteleon_3_up.png18350292025-07-03 09:22:50
-3104276_4652648_StableDefission_leaky_inteleon_4_up.png19045212025-07-03 09:22:51
-3104276_4652650_StableDefission_leaky_inteleon_5_up.png17034132025-07-03 09:22:51
-3104276_4652651_StableDefission_leaky_inteleon_6_up.png20499622025-07-03 09:22:52
-3104276_4652653_StableDefission_extracted_prompts.txt72342025-07-03 09:22:52
-3104319.json101962025-07-03 09:22:00
-3104319_4652718_StableDefission_playful_pup.png17020252025-07-03 09:22:00
-3104983.json222202025-07-03 09:09:20
-3104983_4654202_StableDefission_leaky_suicune_1_up.png22805202025-07-03 09:09:20
-3104983_4654205_StableDefission_leaky_suicune_2_up.png20702702025-07-03 09:09:20
-3104983_4654207_StableDefission_leaky_suicune_3_up.png20246802025-07-03 09:09:20
-3104983_4654208_StableDefission_leaky_suicune_4_up.png22479982025-07-03 09:09:21
-3104983_4654209_StableDefission_leaky_suicune_5_up.png21326942025-07-03 09:09:21
-3104983_4654210_StableDefission_leaky_suicune_6_up.png21324772025-07-03 09:09:21
-3104983_4654211_StableDefission_extracted_prompts.txt75352025-07-03 09:09:21
-3105815.json178142025-07-03 08:55:26
-3105815_4655438_StableDefission_leaky_zacian_1_up.png17798092025-07-03 08:55:26
-3105815_4655442_StableDefission_leaky_zacian_2_up.png18354312025-07-03 08:55:26
-3105815_4655443_StableDefission_leaky_zacian_3_up.png17844072025-07-03 08:55:27
-3105815_4655445_StableDefission_leaky_zacian_4_up.png17589662025-07-03 08:55:27
-3105815_4655448_StableDefission_extracted_prompts.txt48802025-07-03 08:55:27
-3106724.json226032025-07-03 08:37:50
-3106724_4657349_StableDefission_leaky_cat_and_dog_orgy_1_up.png20532992025-07-03 08:37:49
-3106724_4657350_StableDefission_leaky_cat_and_dog_orgy_2_up.png19842862025-07-03 08:37:50
-3106724_4657351_StableDefission_leaky_cat_and_dog_orgy_3_up.png19613692025-07-03 08:37:50
-3106724_4657352_StableDefission_leaky_cat_and_dog_orgy_4_up.png21800202025-07-03 08:37:50
-3106724_4657353_StableDefission_leaky_cat_and_dog_orgy_5_up.png19097592025-07-03 08:37:51
-3106724_4657356_StableDefission_leaky_cat_and_dog_orgy_6_up.png20373402025-07-03 08:37:51
-3106724_4657357_StableDefission_extracted_prompts.txt77702025-07-03 08:37:51
-3111389.json166602025-07-03 07:15:36
-3111389_4666133_StableDefission_camp_equine_1.png16425952025-07-03 07:15:36
-3111389_4666135_StableDefission_camp_equine_2.png18768352025-07-03 07:15:36
-3111389_4666137_StableDefission_camp_equine_3.png16261032025-07-03 07:15:36
-3111389_4666140_StableDefission_camp_equine_4.png19939812025-07-03 07:15:37
-3111389_4666145_StableDefission_extracted_prompts.txt47302025-07-03 07:15:37
-3112183.json208052025-07-03 06:59:36
-3112183_4668336_StableDefission_sleepy_lizard_on_the_beach_1.png19110962025-07-03 06:59:35
-3112183_4668338_StableDefission_sleepy_lizard_on_the_beach_2.png16729932025-07-03 06:59:35
-3112183_4668341_StableDefission_sleepy_lizard_on_the_beach_3.png19305362025-07-03 06:59:35
-3112183_4668342_StableDefission_sleepy_lizard_on_the_beach_4.png16845872025-07-03 06:59:36
-3112183_4668343_StableDefission_sleepy_lizard_on_the_beach_5.png17864522025-07-03 06:59:36
-3112183_4668344_StableDefission_sleepy_lizard_on_the_beach_6.png18285402025-07-03 06:59:36
-3112183_4668345_StableDefission_extracted_prompts.txt77702025-07-03 06:59:36
-3132541.json98302025-07-03 00:49:39
-3132541_4703761_StableDefission_vote.png9440812025-07-03 00:49:39
-3133836.json97722025-07-03 00:26:28
-3133836_4706051_StableDefission_raccoon_vote.png10607032025-07-03 00:26:28
-3134158.json104722025-07-03 00:20:20
-3134158_4706631_StableDefission_fink_vote.png9019782025-07-03 00:20:20
-3161629.json590782025-07-02 15:28:52
-3161629_4751549_StableDefission_panda_trick-or-treat_03.png9711212025-07-02 15:28:50
-3161629_4751552_StableDefission_panda_trick-or-treat_04.png10068792025-07-02 15:28:50
-3161629_4751553_StableDefission_pikachu_trick-or-treat_01.png9111282025-07-02 15:28:50
-3161629_4751554_StableDefission_bee_f_trick-or-treat_1.png10058252025-07-02 15:28:51
-3161629_4751556_StableDefission_bee_f_trick-or-treat_2.png10312072025-07-02 15:28:51
-3161629_4751558_StableDefission_bee_f_trick-or-treat_3.png10271982025-07-02 15:28:51
-3161629_4751559_StableDefission_bee_f_trick-or-treat_4.png9425042025-07-02 15:28:52
-3161629_4751561_StableDefission_bee_f_trick-or-treat_5.png9813122025-07-02 15:28:52
-3161629_4751562_StableDefission_bee_m_trick-or-treat_01.png9273962025-07-02 15:28:52
-3161629_4751563_StableDefission_bee_m_trick-or-treat_02.png9468962025-07-02 15:28:52
-3161629_4751565_StableDefission_bee_m_trick-or-treat_03.png9984632025-07-02 15:28:52
-3161629_4752298_StableDefission_bee_m_trick-or-treat_04_up.png34986632025-07-02 15:28:53
-3161629_4752302_StableDefission_bee_m_trick-or-treat_05_up.png38517132025-07-02 15:28:54
-3161629_4752307_StableDefission_bee_m_trick-or-treat_06_up.png34461642025-07-02 15:28:54
-3161629_4752310_StableDefission_bee_m_trick-or-treat_07_up.png36434592025-07-02 15:28:54
-3161629_4752312_StableDefission_bee_m_trick-or-treat_08_up.png36646502025-07-02 15:28:55
-3161629_4752318_StableDefission_bee_m_trick-or-treat_09_up.png36389452025-07-02 15:28:55
-3161629_4752321_StableDefission_extracted_prompts.txt356752025-07-02 15:28:55
-3161629_4752323_StableDefission_lizard_trick-or-treat_01_up.png32597132025-07-02 15:28:47
-3161629_4752329_StableDefission_lizard_trick-or-treat_02_up.png31882442025-07-02 15:28:47
-3161629_4752330_StableDefission_lizard_trick-or-treat_03_up.png31167602025-07-02 15:28:48
-3161629_4752333_StableDefission_lizard_trick-or-treat_04_up.png29573852025-07-02 15:28:48
-3161629_4752336_StableDefission_lizard_trick-or-treat_05_up.png32050512025-07-02 15:28:48
-3161629_4752339_StableDefission_lizard_trick-or-treat_06_up.png34187182025-07-02 15:28:48
-3161629_4752341_StableDefission_lizard_trick-or-treat_07_up.png30578632025-07-02 15:28:49
-3161629_4752343_StableDefission_panda_trick-or-treat_01_up.png32162292025-07-02 15:28:50
-3161629_4752344_StableDefission_panda_trick-or-treat_02_up.png33254162025-07-02 15:28:50
-3211102.json100162025-07-02 00:07:45
-3211102_4834694_StableDefission_old_snapshot_up.png45343502025-07-02 00:07:45
-3212565.json98912025-07-01 23:37:17
-3212565_4837375_StableDefission_666_up.png47506162025-07-01 23:37:17
-3213746.json87432025-07-01 23:14:05
-3213746_4839454_StableDefission_vanny_up.png53330632025-07-01 23:14:05
-3219493.json116882025-07-01 21:20:25
-3219493_4849471_StableDefission_20240107225116-3654573653-530f7d0a98f04bda8c51698857b29614.png70581392025-07-01 21:20:25
-3225377.json103522025-07-01 19:32:17
-3225377_4859809_StableDefission_tiger_boys_in_the_mangrove_preview.png43232722025-07-01 19:32:17
-3227407.json353712025-07-01 18:53:46
-3227407_4863250_StableDefission_tigers_in_the_mangrove_girls_01.png44982522025-07-01 18:53:42
-3227407_4863255_StableDefission_extracted_prompts.txt166982025-07-01 18:53:48
-3227407_4863257_StableDefission_tigers_in_the_mangrove_girls_02.png49758472025-07-01 18:53:42
-3227407_4863259_StableDefission_tigers_in_the_mangrove_girls_03.png45852622025-07-01 18:53:43
-3227407_4863260_StableDefission_tigers_in_the_mangrove_girls_04.png53398072025-07-01 18:53:43
-3227407_4863261_StableDefission_tigers_in_the_mangrove_girls_05.png21224282025-07-01 18:53:43
-3227407_4863262_StableDefission_tigers_in_the_mangrove_girls_06.png45626612025-07-01 18:53:44
-3227407_4863263_StableDefission_tigers_in_the_mangrove_girls_07.png47827892025-07-01 18:53:45
-3227407_4863264_StableDefission_tigers_in_the_mangrove_girls_08.png49299342025-07-01 18:53:45
-3227407_4863265_StableDefission_tigers_in_the_mangrove_girls_09.png47609532025-07-01 18:53:45
-3227407_4863266_StableDefission_tigers_in_the_mangrove_girls_10.png45927992025-07-01 18:53:46
-3227407_4863267_StableDefission_tigers_in_the_mangrove_girls_11.png46732322025-07-01 18:53:46
-3227407_4863268_StableDefission_tigers_in_the_mangrove_girls_12.png43688052025-07-01 18:53:47
-3227407_4863269_StableDefission_tigers_in_the_mangrove_girls_13.png43913442025-07-01 18:53:47
-3227407_4863270_StableDefission_tigers_in_the_mangrove_girls_14.png45152832025-07-01 18:53:48
-3227431.json770002025-07-01 18:53:15
-3227431_4863316_StableDefission_tigers_in_the_mangrove_boys_01.png20927702025-07-01 18:53:01
-3227431_4863323_StableDefission_extracted_prompts.txt411782025-07-01 18:53:15
-3227431_4863325_StableDefission_tigers_in_the_mangrove_boys_02.png23143712025-07-01 18:53:01
-3227431_4863327_StableDefission_tigers_in_the_mangrove_boys_03.png42938472025-07-01 18:53:01
-3227431_4863328_StableDefission_tigers_in_the_mangrove_boys_04.png45448502025-07-01 18:53:02
-3227431_4863330_StableDefission_tigers_in_the_mangrove_boys_05.png20386082025-07-01 18:53:02
-3227431_4863332_StableDefission_tigers_in_the_mangrove_boys_06.png42184742025-07-01 18:53:03
-3227431_4863333_StableDefission_tigers_in_the_mangrove_boys_07.png46393002025-07-01 18:53:03
-3227431_4863334_StableDefission_tigers_in_the_mangrove_boys_08.png48871332025-07-01 18:53:04
-3227431_4863336_StableDefission_tigers_in_the_mangrove_boys_09.png44184872025-07-01 18:53:05
-3227431_4863337_StableDefission_tigers_in_the_mangrove_boys_10.png45345212025-07-01 18:53:05
-3227431_4863338_StableDefission_tigers_in_the_mangrove_boys_11.png44942662025-07-01 18:53:05
-3227431_4863340_StableDefission_tigers_in_the_mangrove_boys_12.png47516762025-07-01 18:53:06
-3227431_4863342_StableDefission_tigers_in_the_mangrove_boys_13.png50283222025-07-01 18:53:06
-3227431_4863343_StableDefission_tigers_in_the_mangrove_boys_14.png24064212025-07-01 18:53:07
-3227431_4863344_StableDefission_tigers_in_the_mangrove_boys_15.png51955782025-07-01 18:53:07
-3227431_4863345_StableDefission_tigers_in_the_mangrove_boys_16.png47278262025-07-01 18:53:07
-3227431_4863346_StableDefission_tigers_in_the_mangrove_boys_17.png46600922025-07-01 18:53:08
-3227431_4863348_StableDefission_tigers_in_the_mangrove_boys_18.png53240972025-07-01 18:53:08
-3227431_4863350_StableDefission_tigers_in_the_mangrove_boys_19.png45767592025-07-01 18:53:08
-3227431_4863351_StableDefission_tigers_in_the_mangrove_boys_20.png43226092025-07-01 18:53:09
-3227431_4863353_StableDefission_tigers_in_the_mangrove_boys_21.png45223772025-07-01 18:53:09
-3227431_4863354_StableDefission_tigers_in_the_mangrove_boys_22.png45832882025-07-01 18:53:09
-3227431_4863355_StableDefission_tigers_in_the_mangrove_boys_23.png43566222025-07-01 18:53:10
-3227431_4863357_StableDefission_tigers_in_the_mangrove_boys_24.png43234432025-07-01 18:53:10
-3227431_4863358_StableDefission_tigers_in_the_mangrove_boys_25.png44008372025-07-01 18:53:11
-3227431_4863359_StableDefission_tigers_in_the_mangrove_boys_26.png43856862025-07-01 18:53:11
-3227431_4863361_StableDefission_tigers_in_the_mangrove_boys_27.png44371072025-07-01 18:53:11
-3227431_4863363_StableDefission_tigers_in_the_mangrove_boys_28.png44856602025-07-01 18:53:12
-3227431_4863364_StableDefission_tigers_in_the_mangrove_boys_29.png44928992025-07-01 18:53:12
-3227431_4863366_StableDefission_tigers_in_the_mangrove_boys_30.png46557712025-07-01 18:53:13
-3227431_4863367_StableDefission_tigers_in_the_mangrove_boys_31.png40632102025-07-01 18:53:13
-3227431_4863370_StableDefission_tigers_in_the_mangrove_boys_32.png43799392025-07-01 18:53:14
-3227431_4863371_StableDefission_tigers_in_the_mangrove_boys_33.png44320912025-07-01 18:53:14
-3227431_4863373_StableDefission_tigers_in_the_mangrove_boys_34.png42481552025-07-01 18:53:15
-3227431_4863375_StableDefission_tigers_in_the_mangrove_boys_35.png43644892025-07-01 18:53:15
-3228920.json224812025-07-01 18:28:01
-3228920_4865801_StableDefission_blind_bunnies_1.png44113232025-07-01 18:27:59
-3228920_4865803_StableDefission_blind_bunnies_2.png42396582025-07-01 18:27:59
-3228920_4865804_StableDefission_blind_bunnies_3.png43361932025-07-01 18:27:59
-3228920_4865805_StableDefission_blind_bunnies_4.png45085022025-07-01 18:27:59
-3228920_4865806_StableDefission_blind_bunnies_5.png45405812025-07-01 18:28:00
-3228920_4865807_StableDefission_blind_bunnies_6.png42668702025-07-01 18:28:00
-3228920_4865808_StableDefission_blind_bunnies_7.png44579192025-07-01 18:28:00
-3228920_4865809_StableDefission_blind_bunnies_8.png43906022025-07-01 18:28:01
-3228920_4865811_StableDefission_extracted_prompts.txt97922025-07-01 18:28:01
-3234090.json91592025-07-01 16:42:53
-3234090_4874443_StableDefission_raccoon_moon.png34191482025-07-01 16:42:53
-3238127.json63232025-07-01 15:29:46
-3238127_4881303_StableDefission_ib.png43926212025-07-01 15:29:46
-3239372.json108722025-07-01 15:08:42
-3239372_4883603_StableDefission_stickers_set_1.png18221142025-07-01 15:08:42
-3244123.json88032025-07-01 13:41:19
-3244123_4892195_StableDefission_feral_loona.png46585282025-07-01 13:41:19
-3244123_4892197_StableDefission_extracted_prompts.txt25392025-07-01 13:41:19
-3245808.json216322025-07-01 13:09:07
-3245808_4894996_StableDefission_captions_1.png21716232025-07-01 13:09:05
-3245808_4895002_StableDefission_captions_2.png20280292025-07-01 13:09:06
-3245808_4895003_StableDefission_captions_3.png22864102025-07-01 13:09:06
-3245808_4895007_StableDefission_captions_4.png22691892025-07-01 13:09:07
-3245808_4895009_StableDefission_no_captions_1.png21679842025-07-01 13:09:07
-3245808_4895012_StableDefission_no_captions_2.png20123422025-07-01 13:09:07
-3245808_4895017_StableDefission_no_captions_3.png22841352025-07-01 13:09:07
-3245808_4895020_StableDefission_no_captions_4.png22549242025-07-01 13:09:07
-3245808_4895067_StableDefission_extracted_prompts.txt58262025-07-01 13:09:07
-3251711.json377742025-07-01 11:22:41
-3251711_4904936_StableDefission_01.png24738272025-07-01 11:22:38
-3251711_4904938_StableDefission_02.png26188052025-07-01 11:22:38
-3251711_4904939_StableDefission_03.png25986682025-07-01 11:22:39
-3251711_4904940_StableDefission_04.png26569012025-07-01 11:22:39
-3251711_4904941_StableDefission_05.png28561352025-07-01 11:22:39
-3251711_4904942_StableDefission_06.png25866992025-07-01 11:22:40
-3251711_4904943_StableDefission_07.png26198722025-07-01 11:22:40
-3251711_4904944_StableDefission_08.png21936582025-07-01 11:22:41
-3251711_4904946_StableDefission_09.png24971332025-07-01 11:22:41
-3251711_4904947_StableDefission_10.png27050762025-07-01 11:22:41
-3251711_4904949_StableDefission_11.png25932342025-07-01 11:22:42
-3251711_4904951_StableDefission_12.png27097292025-07-01 11:22:43
-3251711_4904952_StableDefission_13.png25418922025-07-01 11:22:43
-3251711_4904954_StableDefission_14.png26148392025-07-01 11:22:43
-3251711_4904955_StableDefission_15.png24852552025-07-01 11:22:43
-3251711_4904957_StableDefission_16.png28010462025-07-01 11:22:44
-3251711_4904960_StableDefission_17.png28365672025-07-01 11:22:44
-3251711_4904961_StableDefission_extracted_prompts.txt161872025-07-01 11:22:44
-3254109.json77892025-07-01 10:33:05
-3254109_4909057_StableDefission_c8ebe581181a4866bd0b341953a2b744.png34880962025-07-01 10:33:05
-3254109_4909059_StableDefission_extracted_prompts.txt12412025-07-01 10:33:05
-3255097.json382822025-07-01 10:14:39
-3255097_4910853_StableDefission_1.png26987552025-07-01 10:14:38
-3255097_4910869_StableDefission_2.png26971822025-07-01 10:14:38
-3255097_4910870_StableDefission_3.png28823082025-07-01 10:14:38
-3255097_4910873_StableDefission_4.png29928142025-07-01 10:14:38
-3255097_4910875_StableDefission_5.png27178032025-07-01 10:14:38
-3255097_4910877_StableDefission_6.png28524902025-07-01 10:14:39
-3255097_4910878_StableDefission_7.png26619642025-07-01 10:14:39
-3255097_4910880_StableDefission_8.png27512682025-07-01 10:14:40
-3255097_4910881_StableDefission_9.png29287382025-07-01 10:14:40
-3255097_4910882_StableDefission_10.png26881152025-07-01 10:14:40
-3255097_4910883_StableDefission_11.png29943772025-07-01 10:14:40
-3255097_4910884_StableDefission_12.png28725252025-07-01 10:14:41
-3255097_4910887_StableDefission_13.png27862342025-07-01 10:14:41
-3255097_4910892_StableDefission_14.png27645322025-07-01 10:14:42
-3255097_4910894_StableDefission_15.png27420982025-07-01 10:14:42
-3255097_4910896_StableDefission_16.png24246082025-07-01 10:14:42
-3255097_4910897_StableDefission_17.png27603922025-07-01 10:14:42
-3255097_4910899_StableDefission_extracted_prompts.txt185112025-07-01 10:14:43
-3255097_4910950_StableDefission_1111.png8362472025-07-01 10:14:37
-3259550.json362592025-07-01 08:47:57
-3259550_4920123_StableDefission_image-001.png41261682025-07-01 08:47:57
-3259550_4920125_StableDefission_image-002.png25935372025-07-01 08:47:57
-3259550_4920126_StableDefission_image-003.png21407512025-07-01 08:47:58
-3259550_4920127_StableDefission_image-004.png25065802025-07-01 08:47:58
-3259550_4920128_StableDefission_image-005.png23247482025-07-01 08:47:58
-3259550_4920132_StableDefission_image-006.png23181542025-07-01 08:47:58
-3259550_4920134_StableDefission_image-007.png23494852025-07-01 08:47:59
-3259550_4920137_StableDefission_image-008.png28117372025-07-01 08:47:59
-3259550_4920138_StableDefission_image-009.png26324902025-07-01 08:47:59
-3259550_4920139_StableDefission_image-010.png24858902025-07-01 08:48:00
-3259550_4920141_StableDefission_image-011.png22976152025-07-01 08:48:00
-3259550_4920142_StableDefission_image-012.png23846042025-07-01 08:48:00
-3259550_4920144_StableDefission_image-013.png22288472025-07-01 08:48:00
-3259550_4920148_StableDefission_image-014.png24260232025-07-01 08:48:01
-3259550_4920149_StableDefission_image-015.png24364702025-07-01 08:48:01
-3259550_4920152_StableDefission_metadata_summary.txt156792025-07-01 08:48:01
-3259691.json113112025-07-01 08:45:58
-3259691_4920377_StableDefission_image-001.png17511252025-07-01 08:45:58
-3259691_4920378_StableDefission_image-002.png22298712025-07-01 08:45:58
-3259691_4920379_StableDefission_image-003.png23304422025-07-01 08:45:58
-3259691_4920380_StableDefission_metadata_summary.txt26492025-07-01 08:45:58
-3259693.json82882025-07-01 08:45:55
-3259693_4920382_StableDefission_image-001.png28727022025-07-01 08:45:55
-3259693_4920384_StableDefission_metadata_summary.txt14832025-07-01 08:45:55
-3260809.json100962025-07-01 08:26:48
-3260809_4922404_StableDefission_image-001.png25530122025-07-01 08:26:48
-3260809_4922407_StableDefission_metadata_summary.txt12092025-07-01 08:26:48
-3260813.json75162025-07-01 08:26:44
-3260813_4922410_StableDefission_image-001.png27397612025-07-01 08:26:44
-3260813_4922414_StableDefission_metadata_summary.txt12272025-07-01 08:26:44
-3270177.json83792025-07-01 05:33:10
-3270177_4939103_StableDefission_30.png6945982025-07-01 05:33:10
-3270177_4939105_StableDefission_mic_drop.txt9052025-07-01 05:33:10
-3275234.json231722025-07-01 03:44:35
-3275234_4947863_StableDefission_image-001.png27153322025-07-01 03:44:35
-3275234_4947865_StableDefission_image-002.png29444472025-07-01 03:44:35
-3275234_4947866_StableDefission_image-003.png28138282025-07-01 03:44:36
-3275234_4947868_StableDefission_image-004.png25845312025-07-01 03:44:36
-3275234_4947869_StableDefission_image-005.png24465412025-07-01 03:44:36
-3275234_4947870_StableDefission_image-006.png24408662025-07-01 03:44:37
-3275234_4947871_StableDefission_image-007.png27306192025-07-01 03:44:37
-3275234_4947872_StableDefission_image-008.png26617152025-07-01 03:44:38
-3275234_4947874_StableDefission_image-009.png25488592025-07-01 03:44:39
-3275234_4947876_StableDefission_metadata_summary.txt74492025-07-01 03:44:39
-3275239.json207812025-07-01 03:44:31
-3275239_4947877_StableDefission_image-001.png23322042025-07-01 03:44:27
-3275239_4947878_StableDefission_image-002.png23809232025-07-01 03:44:28
-3275239_4947880_StableDefission_image-003.png24450702025-07-01 03:44:28
-3275239_4947881_StableDefission_image-004.png20852002025-07-01 03:44:28
-3275239_4947882_StableDefission_image-005.png24118902025-07-01 03:44:29
-3275239_4947884_StableDefission_image-006.png21496672025-07-01 03:44:29
-3275239_4947885_StableDefission_image-007.png25059632025-07-01 03:44:30
-3275239_4947886_StableDefission_image-008.png24725272025-07-01 03:44:31
-3275239_4947887_StableDefission_metadata_summary.txt65602025-07-01 03:44:31
-3277288.json118282025-07-01 03:01:47
-3277288_4951261_StableDefission_image-001.png30467502025-07-01 03:01:46
-3277288_4951262_StableDefission_image-002.png31421642025-07-01 03:01:46
-3277288_4951263_StableDefission_image-003.png30772852025-07-01 03:01:46
-3277288_4951265_StableDefission_metadata_summary.txt41072025-07-01 03:01:47
-3277303.json121032025-07-01 03:01:32
-3277303_4951315_StableDefission_aiib.png271202025-07-01 03:01:32
-3277321.json225162025-07-01 03:01:12
-3277321_4951351_StableDefission_image-001.png24961602025-07-01 03:01:12
-3277321_4951354_StableDefission_image-002.png25805102025-07-01 03:01:12
-3277321_4951357_StableDefission_image-004.png28233272025-07-01 03:01:13
-3277321_4951360_StableDefission_image-005.png23997152025-07-01 03:01:14
-3277321_4951362_StableDefission_image-006.png23985692025-07-01 03:01:14
-3277321_4951363_StableDefission_image-007.png22620542025-07-01 03:01:15
-3277321_4951365_StableDefission_image-008.png26748832025-07-01 03:01:15
-3277321_4951366_StableDefission_metadata_summary.txt60312025-07-01 03:01:15
-3277321_4954458_StableDefission_3.png26765922025-07-01 03:01:13
-3285496.json64582025-07-01 00:20:57
-3285496_4966277_StableDefission_group.png8436772025-07-01 00:20:57
-3288135.json218372025-06-30 23:29:19
-3288135_4971522_StableDefission_image-001.png106248222025-06-30 23:29:19
-3288135_4971523_StableDefission_image-002.png28160702025-06-30 23:29:21
-3288135_4971525_StableDefission_image-003.png24227832025-06-30 23:29:21
-3288135_4971526_StableDefission_image-004.png26289622025-06-30 23:29:21
-3288135_4971527_StableDefission_image-005.png25661782025-06-30 23:29:22
-3288135_4971528_StableDefission_image-006.png105659882025-06-30 23:29:22
-3288135_4971530_StableDefission_image-007.png27945422025-06-30 23:29:22
-3288135_4971531_StableDefission_image-008.png110974862025-06-30 23:29:23
-3288135_4971532_StableDefission_metadata_summary.txt88742025-06-30 23:29:23
-3317840.json201822025-06-30 12:33:46
-3317840_5025025_StableDefission_image-001.png59743322025-06-30 12:33:40
-3317840_5025026_StableDefission_image-002.png66634322025-06-30 12:33:41
-3317840_5025029_StableDefission_image-003.png67084542025-06-30 12:33:41
-3317840_5025031_StableDefission_image-004.png58906572025-06-30 12:33:42
-3317840_5025034_StableDefission_image-005.png65366002025-06-30 12:33:42
-3317840_5025036_StableDefission_image-006.png85868282025-06-30 12:33:45
-3317840_5025039_StableDefission_image-007.png64109842025-06-30 12:33:46
-3317840_5025043_StableDefission_metadata_summary.txt71662025-06-30 12:33:46
-3319673.json120332025-06-30 11:54:05
-3319673_5028569_StableDefission_image-001.png77051502025-06-30 11:54:04
-3319673_5028570_StableDefission_image-002.png79520792025-06-30 11:54:04
-3319673_5028572_StableDefission_image-003.png175161152025-06-30 11:54:05
-3319673_5028573_StableDefission_metadata_summary.txt41092025-06-30 11:54:05
-3319703.json123332025-06-30 11:53:19
-3319703_5028618_StableDefission_image-001.png63426812025-06-30 11:53:18
-3319703_5028619_StableDefission_image-002.png88769082025-06-30 11:53:19
-3319703_5028623_StableDefission_image-003.png71879352025-06-30 11:53:20
-3319703_5028630_StableDefission_metadata_summary.txt36252025-06-30 11:53:20
-3344484.json83102025-06-30 03:44:24
-3344484_5071224_StableDefission_image-001.png52964562025-06-30 03:44:24
-3344484_5071228_StableDefission_metadata_summary.txt8712025-06-30 03:44:24
-3470919.json86602025-06-28 06:39:06
-3470919_5292789_StableDefission_makefoxbot_full_image_7302213.png26367622025-06-28 06:39:06

control-panel